Time,TemperatureF,DewpointF,PressureIn,WindDirection,WindDirectionDegrees,WindSpeedMPH,WindSpeedGustMPH,Humidity,HourlyPrecipIn,Conditions,Clouds,dailyrainin,SoftwareType,DateUTC
2013-01-30 00:03:00,51.4,49.2,29.73,SW,235,5.8,5.8,92,0.00,RA,,0.00,WeatherDisplay:10.37,2013-01-30 06:03:00,
2013-01-30 00:08:00,51.6,49.4,29.73,WSW,256,5.8,5.8,92,0.00,RA,,0.00,WeatherDisplay:10.37,2013-01-30 06:08:00,
2013-01-30 00:21:00,51.6,49.4,29.73,WSW,245,4.9,4.9,92,0.00,BKN,,0.00,WeatherDisplay:10.37,2013-01-30 06:21:00,
2013-01-30 00:26:00,51.6,49.1,29.73,WSW,253,4.6,4.6,91,0.00,BKN,,0.00,WeatherDisplay:10.37,2013-01-30 06:26:00,
2013-01-30 01:35:00,50.7,45.4,29.73,West,264,3.5,3.5,82,0.00,BKN,,0.00,WeatherDisplay:10.37,2013-01-30 07:35:00,
2013-01-30 01:40:00,50.2,45.2,29.70,WSW,258,3.5,3.5,83,0.00,BKN,,0.00,WeatherDisplay:10.37,2013-01-30 07:40:00,
2013-01-30 01:45:00,50.0,44.7,29.70,WSW,246,3.5,3.5,82,0.00,BKN,,0.00,WeatherDisplay:10.37,2013-01-30 07:45:00,
2013-01-30 01:50:00,50.0,44.7,29.73,WSW,250,6.9,6.9,82,0.00,CLR,,0.00,WeatherDisplay:10.37,2013-01-30 07:50:00,
2013-01-30 01:55:00,49.8,44.2,29.73,SW,221,3.5,3.5,81,0.00,CLR,,0.00,WeatherDisplay:10.37,2013-01-30 07:55:00,
2013-01-30 02:00:00,49.6,44.0,29.73,West,260,3.5,3.5,81,0.00,CLR,,0.00,WeatherDisplay:10.37,2013-01-30 08:00:00,
2013-01-30 02:06:00,49.6,42.0,29.73,West,264,3.5,3.5,75,0.00,CLR,,0.00,WeatherDisplay:10.37,2013-01-30 08:06:00,
2013-01-30 02:17:00,49.8,37.3,29.73,West,267,3.5,3.5,62,0.00,CLR,,0.00,WeatherDisplay:10.37,2013-01-30 08:17:00,
2013-01-30 02:22:00,49.6,35.9,29.73,West,263,5.8,5.8,59,0.00,CLR,,0.00,WeatherDisplay:10.37,2013-01-30 08:22:00,
2013-01-30 02:27:00,49.5,34.4,29.73,WSW,254,3.6,3.6,56,0.00,CLR,,0.00,WeatherDisplay:10.37,2013-01-30 08:27:00,
2013-01-30 02:32:00,49.3,34.7,29.73,SW,226,5.8,5.8,57,0.00,CLR,,0.00,WeatherDisplay:10.37,2013-01-30 08:32:00,
2013-01-30 02:37:00,48.9,34.8,29.73,West,263,3.5,3.5,58,0.00,CLR,,0.00,WeatherDisplay:10.37,2013-01-30 08:37:00,
2013-01-30 02:42:00,48.7,34.2,29.73,WSW,246,3.5,3.5,57,0.00,CLR,,0.00,WeatherDisplay:10.37,2013-01-30 08:42:00,
2013-01-30 02:47:00,48.6,34.0,29.73,SW,226,4.0,4.0,57,0.00,CLR,,0.00,WeatherDisplay:10.37,2013-01-30 08:47:00,
2013-01-30 02:52:00,48.6,34.0,29.73,WSW,251,4.6,4.6,57,0.00,CLR,,0.00,WeatherDisplay:10.37,2013-01-30 08:52:00,
2013-01-30 02:57:00,48.4,33.4,29.73,SW,236,3.5,3.5,56,0.00,CLR,,0.00,WeatherDisplay:10.37,2013-01-30 08:57:00,
2013-01-30 03:02:00,48.4,32.9,29.73,West,274,5.8,5.8,55,0.00,CLR,,0.00,WeatherDisplay:10.37,2013-01-30 09:02:00,
2013-01-30 03:07:00,48.7,32.4,29.73,SSW,212,4.0,4.0,53,0.00,CLR,,0.00,WeatherDisplay:10.37,2013-01-30 09:07:00,
2013-01-30 03:12:00,48.6,32.7,29.73,SW,220,3.5,3.5,54,0.00,CLR,,0.00,WeatherDisplay:10.37,2013-01-30 09:12:00,
2013-01-30 03:17:00,48.2,32.3,29.73,WSW,249,3.6,0.0,54,0.00,CLR,,0.00,WeatherDisplay:10.37,2013-01-30 09:17:00,
2013-01-30 03:22:00,48.2,31.9,29.73,WSW,239,4.6,4.6,53,0.00,CLR,,0.00,WeatherDisplay:10.37,2013-01-30 09:22:00,
2013-01-30 03:27:00,48.4,32.0,29.73,WSW,244,3.5,0.0,53,0.00,CLR,,0.00,WeatherDisplay:10.37,2013-01-30 09:27:00,
2013-01-30 03:32:00,48.0,32.2,29.73,WSW,243,3.5,3.5,54,0.00,CLR,,0.00,WeatherDisplay:10.37,2013-01-30 09:32:00,
2013-01-30 03:37:00,47.5,32.1,29.73,WSW,243,3.5,0.0,55,0.00,CLR,,0.00,WeatherDisplay:10.37,2013-01-30 09:37:00,
2013-01-30 03:42:00,47.7,32.3,29.73,WSW,238,4.6,4.6,55,0.00,CLR,,0.00,WeatherDisplay:10.37,2013-01-30 09:42:00,
2013-01-30 03:47:00,47.8,32.0,29.73,SW,222,3.5,3.5,54,0.00,CLR,,0.00,WeatherDisplay:10.37,2013-01-30 09:47:00,
2013-01-30 03:52:00,47.8,32.0,29.73,SW,230,3.5,3.5,54,0.00,CLR,,0.00,WeatherDisplay:10.37,2013-01-30 09:52:00,
2013-01-30 03:57:00,47.7,32.3,29.73,SW,216,3.5,3.5,55,0.00,CLR,,0.00,WeatherDisplay:10.37,2013-01-30 09:57:00,
2013-01-30 04:02:00,47.7,32.3,29.73,SW,235,5.8,5.8,55,0.00,CLR,,0.00,WeatherDisplay:10.37,2013-01-30 10:02:00,
2013-01-30 04:07:00,47.7,32.7,29.73,SW,217,3.5,3.5,56,0.00,CLR,,0.00,WeatherDisplay:10.37,2013-01-30 10:07:00,
2013-01-30 04:12:00,47.5,33.4,29.73,SW,235,4.6,4.6,58,0.00,CLR,,0.00,WeatherDisplay:10.37,2013-01-30 10:12:00,
2013-01-30 04:17:00,47.7,35.3,29.73,SSW,207,5.8,5.8,62,0.00,CLR,,0.00,WeatherDisplay:10.37,2013-01-30 10:17:00,
2013-01-30 04:22:00,47.7,37.2,29.76,South,172,3.5,3.5,67,0.00,CLR,,0.00,WeatherDisplay:10.37,2013-01-30 10:22:00,
2013-01-30 04:27:00,47.3,38.4,29.76,SSW,197,5.8,5.8,71,0.00,CLR,,0.00,WeatherDisplay:10.37,2013-01-30 10:27:00,
2013-01-30 04:32:00,46.8,38.6,29.76,SSW,210,4.6,4.6,73,0.00,CLR,,0.00,WeatherDisplay:10.37,2013-01-30 10:32:00,
2013-01-30 04:37:00,46.4,38.9,29.76,SSW,200,5.4,5.4,75,0.00,CLR,,0.00,WeatherDisplay:10.37,2013-01-30 10:37:00,
2013-01-30 04:42:00,46.0,39.2,29.76,SSE,150,3.5,3.5,77,0.00,CLR,,0.00,WeatherDisplay:10.37,2013-01-30 10:42:00,
2013-01-30 04:47:00,46.0,39.9,29.76,SSE,159,3.5,3.5,79,0.00,CLR,,0.00,WeatherDisplay:10.37,2013-01-30 10:47:00,
2013-01-30 04:52:00,45.9,40.0,29.79,SSW,210,3.5,3.5,80,0.00,CLR,,0.00,WeatherDisplay:10.37,2013-01-30 10:52:00,
2013-01-30 04:57:00,45.9,40.4,29.79,SSW,192,3.5,3.5,81,0.00,CLR,,0.00,WeatherDisplay:10.37,2013-01-30 10:57:00,
2013-01-30 05:02:00,45.9,40.7,29.79,South,188,3.5,3.5,82,0.00,CLR,,0.00,WeatherDisplay:10.37,2013-01-30 11:02:00,
2013-01-30 05:07:00,46.0,40.9,29.79,South,173,2.3,0.0,82,0.00,CLR,,0.00,WeatherDisplay:10.37,2013-01-30 11:07:00,
2013-01-30 05:12:00,46.0,40.9,29.79,SSW,200,3.5,3.5,82,0.00,CLR,,0.00,WeatherDisplay:10.37,2013-01-30 11:12:00,
2013-01-30 05:17:00,46.2,41.3,29.79,NE,43,3.5,3.5,83,0.00,CLR,,0.00,WeatherDisplay:10.37,2013-01-30 11:17:00,
2013-01-30 05:22:00,46.4,41.5,29.79,South,190,5.8,5.8,83,0.00,CLR,,0.00,WeatherDisplay:10.37,2013-01-30 11:22:00,
2013-01-30 05:27:00,46.6,41.1,29.79,East,84,8.1,8.1,81,0.00,CLR,,0.00,WeatherDisplay:10.37,2013-01-30 11:27:00,
2013-01-30 05:32:00,46.4,39.2,29.79,NE,41,5.8,5.8,76,0.00,SCT,,0.00,WeatherDisplay:10.37,2013-01-30 11:32:00,
2013-01-30 05:37:00,46.2,38.7,29.79,North,0,4.6,4.6,75,0.00,SCT,,0.00,WeatherDisplay:10.37,2013-01-30 11:37:00,
2013-01-30 05:42:00,46.0,38.2,29.79,ENE,63,5.8,5.8,74,0.00,SCT,,0.00,WeatherDisplay:10.37,2013-01-30 11:42:00,
2013-01-30 05:47:00,45.9,37.7,29.79,ENE,71,4.6,4.6,73,0.00,SCT,,0.00,WeatherDisplay:10.37,2013-01-30 11:47:00,
2013-01-30 05:52:00,45.7,37.5,29.79,NE,40,4.0,4.0,73,0.00,SCT,,0.00,WeatherDisplay:10.37,2013-01-30 11:52:00,
2013-01-30 05:57:00,45.7,37.2,29.79,NNE,13,3.5,3.5,72,0.00,SCT,,0.00,WeatherDisplay:10.37,2013-01-30 11:57:00,
2013-01-30 06:02:00,45.7,37.5,29.79,NNE,16,3.5,3.5,73,0.00,BKN,,0.00,WeatherDisplay:10.37,2013-01-30 12:02:00,
2013-01-30 06:07:00,45.5,36.6,29.82,NNE,22,3.5,3.5,71,0.00,BKN,,0.00,WeatherDisplay:10.37,2013-01-30 12:07:00,
2013-01-30 06:12:00,45.5,36.6,29.82,ESE,119,5.8,5.8,71,0.00,BKN,,0.00,WeatherDisplay:10.37,2013-01-30 12:12:00,
2013-01-30 06:18:00,45.5,36.6,29.82,NE,36,3.5,0.0,71,0.00,BKN,,0.00,WeatherDisplay:10.37,2013-01-30 12:18:00,
2013-01-30 06:23:00,45.3,36.1,29.85,East,83,3.5,0.0,70,0.00,BKN,,0.00,WeatherDisplay:10.37,2013-01-30 12:23:00,
2013-01-30 06:28:00,45.3,36.1,29.85,South,172,4.6,4.6,70,0.00,BKN,,0.00,WeatherDisplay:10.37,2013-01-30 12:28:00,
2013-01-30 06:33:00,45.0,35.8,29.85,SSW,201,4.6,4.6,70,0.00,BKN,,0.00,WeatherDisplay:10.37,2013-01-30 12:33:00,
2013-01-30 06:38:00,45.0,35.4,29.85,SSE,161,4.6,4.6,69,0.00,BKN,,0.00,WeatherDisplay:10.37,2013-01-30 12:38:00,
2013-01-30 06:43:00,44.6,35.1,29.85,South,189,5.8,5.8,69,0.00,BKN,,0.00,WeatherDisplay:10.37,2013-01-30 12:43:00,
2013-01-30 06:48:00,44.2,34.7,29.85,SE,138,4.6,4.6,69,0.00,BKN,,0.00,WeatherDisplay:10.37,2013-01-30 12:48:00,
2013-01-30 06:53:00,44.2,34.7,29.85,South,185,3.5,3.5,69,0.00,BKN,,0.00,WeatherDisplay:10.37,2013-01-30 12:53:00,
2013-01-30 06:58:00,44.4,34.5,29.85,SSE,168,6.9,6.9,68,0.00,BKN,,0.00,WeatherDisplay:10.37,2013-01-30 12:58:00,
2013-01-30 07:03:00,44.2,34.3,29.85,South,189,5.8,5.8,68,0.00,OVC,,0.00,WeatherDisplay:10.37,2013-01-30 13:03:00,
2013-01-30 07:08:00,44.2,34.3,29.88,SE,139,5.8,5.8,68,0.00,OVC,,0.00,WeatherDisplay:10.37,2013-01-30 13:08:00,
2013-01-30 07:13:00,44.2,34.3,29.88,ENE,57,3.6,3.6,68,0.00,OVC,,0.00,WeatherDisplay:10.37,2013-01-30 13:13:00,
2013-01-30 07:18:00,44.1,34.2,29.88,SW,231,5.8,5.8,68,0.00,OVC,,0.00,WeatherDisplay:10.37,2013-01-30 13:18:00,
2013-01-30 07:23:00,44.1,34.2,29.88,NE,37,3.5,3.5,68,0.00,OVC,,0.00,WeatherDisplay:10.37,2013-01-30 13:23:00,
2013-01-30 07:28:00,43.9,34.0,29.88,NNE,22,5.8,5.8,68,0.00,OVC,,0.00,WeatherDisplay:10.37,2013-01-30 13:28:00,
2013-01-30 07:33:00,43.7,34.2,29.88,East,96,8.1,8.1,69,0.00,OVC,,0.00,WeatherDisplay:10.37,2013-01-30 13:33:00,
2013-01-30 07:38:00,43.7,34.2,29.88,South,169,0.0,0.0,69,0.00,OVC,,0.00,WeatherDisplay:10.37,2013-01-30 13:38:00,
2013-01-30 07:43:00,43.9,34.0,29.88,South,185,5.8,5.8,68,0.00,OVC,,0.00,WeatherDisplay:10.37,2013-01-30 13:43:00,
2013-01-30 07:48:00,43.9,34.4,29.88,South,181,3.6,0.0,69,0.00,OVC,,0.00,WeatherDisplay:10.37,2013-01-30 13:48:00,
2013-01-30 07:53:00,43.9,34.4,29.91,South,188,3.5,3.5,69,0.00,OVC,,0.00,WeatherDisplay:10.37,2013-01-30 13:53:00,
2013-01-30 07:58:00,43.9,34.7,29.91,ENE,62,3.5,3.5,70,0.00,OVC,,0.00,WeatherDisplay:10.37,2013-01-30 13:58:00,
2013-01-30 08:03:00,44.1,34.9,29.91,NE,41,5.8,5.8,70,0.00,-RA,,0.00,WeatherDisplay:10.37,2013-01-30 14:03:00,
2013-01-30 08:08:00,43.7,34.2,29.91,NNE,17,3.5,3.5,69,0.00,-RA,,0.00,WeatherDisplay:10.37,2013-01-30 14:08:00,
2013-01-30 08:13:00,43.5,34.0,29.91,South,169,5.8,5.8,69,0.00,-RA,,0.00,WeatherDisplay:10.37,2013-01-30 14:13:00,
2013-01-30 08:18:00,43.0,34.2,29.91,NE,46,5.4,0.0,71,0.00,-RA,,0.00,WeatherDisplay:10.37,2013-01-30 14:18:00,
2013-01-30 08:23:00,42.8,34.4,29.91,NE,34,2.3,0.0,72,0.00,-RA,,0.00,WeatherDisplay:10.37,2013-01-30 14:23:00,
2013-01-30 08:28:00,42.6,34.9,29.91,NE,46,3.5,3.6,74,0.00,-RA,,0.00,WeatherDisplay:10.37,2013-01-30 14:28:00,
2013-01-30 08:33:00,42.8,34.4,29.91,SE,137,5.8,5.8,72,0.00,OVC,,0.00,WeatherDisplay:10.37,2013-01-30 14:33:00,
2013-01-30 08:38:00,43.0,33.1,29.94,SSW,195,6.3,6.3,68,0.00,OVC,,0.00,WeatherDisplay:10.37,2013-01-30 14:38:00,
2013-01-30 08:43:00,43.0,33.1,29.94,NNW,329,3.5,3.5,68,0.00,OVC,,0.00,WeatherDisplay:10.37,2013-01-30 14:43:00,
2013-01-30 08:48:00,43.2,32.9,29.94,NE,50,4.6,4.6,67,0.00,OVC,,0.00,WeatherDisplay:10.37,2013-01-30 14:48:00,
2013-01-30 08:53:00,43.2,32.6,29.94,SSE,164,5.8,5.8,66,0.00,OVC,,0.00,WeatherDisplay:10.37,2013-01-30 14:53:00,
2013-01-30 08:58:00,43.3,32.0,29.94,NE,46,5.8,5.8,64,0.00,OVC,,0.00,WeatherDisplay:10.37,2013-01-30 14:58:00,
2013-01-30 09:03:00,43.7,32.7,29.94,NNE,30,5.8,5.8,65,0.00,OVC,,0.00,WeatherDisplay:10.37,2013-01-30 15:03:00,
2013-01-30 09:08:00,43.7,31.9,29.97,North,0,8.1,8.1,63,0.00,OVC,,0.00,WeatherDisplay:10.37,2013-01-30 15:08:00,
2013-01-30 09:13:00,43.7,30.7,29.97,East,98,8.1,8.1,60,0.00,OVC,,0.00,WeatherDisplay:10.37,2013-01-30 15:13:00,
2013-01-30 09:18:00,44.2,32.0,29.97,NE,45,4.6,4.6,62,0.00,OVC,,0.00,WeatherDisplay:10.37,2013-01-30 15:18:00,
2013-01-30 09:23:00,44.8,30.0,29.97,East,90,6.9,6.9,56,0.00,OVC,,0.00,WeatherDisplay:10.37,2013-01-30 15:23:00,
2013-01-30 09:28:00,45.1,29.5,29.97,NNE,32,9.2,9.2,54,0.00,OVC,,0.00,WeatherDisplay:10.37,2013-01-30 15:28:00,
2013-01-30 09:33:00,45.1,29.5,29.97,NNE,14,8.1,8.1,54,0.00,OVC,,0.00,WeatherDisplay:10.37,2013-01-30 15:33:00,
2013-01-30 09:38:00,44.8,29.1,29.97,SW,226,6.9,6.9,54,0.00,OVC,,0.00,WeatherDisplay:10.37,2013-01-30 15:38:00,
2013-01-30 09:43:00,44.1,28.9,29.97,SSE,167,8.1,8.1,55,0.00,OVC,,0.00,WeatherDisplay:10.37,2013-01-30 15:43:00,
2013-01-30 09:48:00,44.1,28.9,29.97,South,175,8.1,8.1,55,0.00,OVC,,0.00,WeatherDisplay:10.37,2013-01-30 15:48:00,
2013-01-30 09:53:00,44.1,28.9,30.00,South,178,8.1,8.1,55,0.00,OVC,,0.00,WeatherDisplay:10.37,2013-01-30 15:53:00,
2013-01-30 09:58:00,44.2,29.5,30.00,North,357,8.1,8.1,56,0.00,OVC,,0.00,WeatherDisplay:10.37,2013-01-30 15:58:00,
2013-01-30 10:03:00,44.2,28.6,30.00,South,183,8.1,8.1,54,0.00,OVC,,0.00,WeatherDisplay:10.37,2013-01-30 16:03:00,
2013-01-30 10:08:00,44.1,28.9,30.00,NNW,343,5.8,5.8,55,0.00,OVC,,0.00,WeatherDisplay:10.37,2013-01-30 16:08:00,
2013-01-30 10:13:00,44.4,28.3,30.00,South,179,8.1,8.1,53,0.00,OVC,,0.00,WeatherDisplay:10.37,2013-01-30 16:13:00,
2013-01-30 10:18:00,45.5,28.9,30.00,SE,146,8.1,8.1,52,0.00,OVC,,0.00,WeatherDisplay:10.37,2013-01-30 16:18:00,
2013-01-30 10:23:00,45.3,28.2,30.03,SSW,208,5.8,5.8,51,0.00,OVC,,0.00,WeatherDisplay:10.37,2013-01-30 16:23:00,
2013-01-30 10:28:00,45.0,27.4,30.03,WSW,246,8.1,8.1,50,0.00,OVC,,0.00,WeatherDisplay:10.37,2013-01-30 16:28:00,
2013-01-30 10:33:00,45.1,27.6,30.03,South,170,9.2,9.2,50,0.00,OVC,,0.00,WeatherDisplay:10.37,2013-01-30 16:33:00,
2013-01-30 10:38:00,45.9,28.3,30.03,SSE,160,6.9,6.9,50,0.00,OVC,,0.00,WeatherDisplay:10.37,2013-01-30 16:38:00,
2013-01-30 10:43:00,46.2,29.5,30.03,NNE,33,3.5,3.5,52,0.00,OVC,,0.00,WeatherDisplay:10.37,2013-01-30 16:43:00,
2013-01-30 10:48:00,46.2,29.1,30.03,SE,133,5.8,5.8,51,0.00,OVC,,0.00,WeatherDisplay:10.37,2013-01-30 16:48:00,
2013-01-30 10:53:00,46.2,29.1,30.03,NE,35,8.1,8.1,51,0.00,OVC,,0.00,WeatherDisplay:10.37,2013-01-30 16:53:00,
2013-01-30 10:58:00,46.0,28.9,30.03,NNE,31,4.6,4.6,51,0.00,OVC,,0.00,WeatherDisplay:10.37,2013-01-30 16:58:00,
2013-01-30 11:03:00,46.4,28.8,30.03,South,179,5.8,5.8,50,0.00,BKN,,0.00,WeatherDisplay:10.37,2013-01-30 17:03:00,
2013-01-30 11:08:00,46.8,28.6,30.03,ENE,73,8.1,8.1,49,0.00,BKN,,0.00,WeatherDisplay:10.37,2013-01-30 17:08:00,
2013-01-30 11:13:00,47.1,29.4,30.03,South,179,3.6,3.6,50,0.00,BKN,,0.00,WeatherDisplay:10.37,2013-01-30 17:13:00,
2013-01-30 11:18:00,47.1,28.4,30.03,NE,52,5.8,5.8,48,0.00,BKN,,0.00,WeatherDisplay:10.37,2013-01-30 17:18:00,
2013-01-30 11:23:00,47.3,28.6,30.03,NNE,22,6.9,6.9,48,0.00,BKN,,0.00,WeatherDisplay:10.37,2013-01-30 17:23:00,
2013-01-30 11:28:00,47.7,28.9,30.03,SSW,203,9.2,9.2,48,0.00,BKN,,0.00,WeatherDisplay:10.37,2013-01-30 17:28:00,
2013-01-30 11:33:00,47.5,28.7,30.03,ENE,66,9.2,9.2,48,0.00,OVC,,0.00,WeatherDisplay:10.37,2013-01-30 17:33:00,
2013-01-30 11:39:00,47.5,29.3,30.03,North,357,5.8,5.8,49,0.00,OVC,,0.00,WeatherDisplay:10.37,2013-01-30 17:39:00,
2013-01-30 11:44:00,47.1,28.4,30.03,East,92,9.2,9.2,48,0.00,OVC,,0.00,WeatherDisplay:10.37,2013-01-30 17:44:00,
2013-01-30 11:49:00,47.8,29.6,30.03,NNE,18,8.1,8.1,49,0.00,OVC,,0.00,WeatherDisplay:10.37,2013-01-30 17:49:00,
2013-01-30 11:54:00,47.8,29.1,30.06,NNE,16,5.8,5.8,48,0.00,OVC,,0.00,WeatherDisplay:10.37,2013-01-30 17:54:00,
2013-01-30 11:59:00,47.8,28.6,30.06,South,191,5.8,5.8,47,0.00,OVC,,0.00,WeatherDisplay:10.37,2013-01-30 17:59:00,
2013-01-30 12:04:00,47.7,28.9,30.06,NE,35,8.1,8.1,48,0.00,OVC,,0.00,WeatherDisplay:10.37,2013-01-30 18:04:00,
2013-01-30 12:09:00,47.5,27.7,30.06,SSE,152,6.3,6.3,46,0.00,OVC,,0.00,WeatherDisplay:10.37,2013-01-30 18:09:00,
2013-01-30 12:14:00,47.7,26.2,30.06,South,189,8.0,8.0,43,0.00,OVC,,0.00,WeatherDisplay:10.37,2013-01-30 18:14:00,
2013-01-30 12:19:00,48.2,27.8,30.06,South,182,10.4,10.4,45,0.00,OVC,,0.00,WeatherDisplay:10.37,2013-01-30 18:19:00,
2013-01-30 12:24:00,48.6,27.1,30.06,SSE,163,9.2,9.2,43,0.00,OVC,,0.00,WeatherDisplay:10.37,2013-01-30 18:24:00,
2013-01-30 12:29:00,48.6,28.2,30.06,SSW,194,5.8,5.8,45,0.00,OVC,,0.00,WeatherDisplay:10.37,2013-01-30 18:29:00,
2013-01-30 12:34:00,48.0,26.6,30.06,South,189,8.1,8.1,43,0.00,OVC,,0.00,WeatherDisplay:10.37,2013-01-30 18:34:00,
2013-01-30 12:39:00,47.5,26.1,30.06,NNE,24,5.8,5.8,43,0.00,OVC,,0.00,WeatherDisplay:10.37,2013-01-30 18:39:00,
2013-01-30 12:44:00,47.3,25.9,30.06,WNW,291,4.6,4.9,43,0.00,OVC,,0.00,WeatherDisplay:10.37,2013-01-30 18:44:00,
2013-01-30 12:49:00,48.2,27.3,30.06,NNW,344,5.8,5.8,44,0.00,OVC,,0.00,WeatherDisplay:10.37,2013-01-30 18:49:00,
2013-01-30 12:54:00,48.4,26.3,30.06,West,260,5.8,5.8,42,0.00,OVC,,0.00,WeatherDisplay:10.37,2013-01-30 18:54:00,
2013-01-30 12:59:00,48.4,26.9,30.06,NE,37,8.1,8.1,43,0.00,OVC,,0.00,WeatherDisplay:10.37,2013-01-30 18:59:00,
2013-01-30 13:04:00,48.4,26.3,30.06,SSE,153,3.5,3.6,42,0.00,BKN,,0.00,WeatherDisplay:10.37,2013-01-30 19:04:00,
2013-01-30 13:09:00,48.4,25.7,30.03,NNE,32,4.6,4.6,41,0.00,BKN,,0.00,WeatherDisplay:10.37,2013-01-30 19:09:00,
2013-01-30 13:14:00,48.2,26.2,30.03,North,8,3.6,3.6,42,0.00,BKN,,0.00,WeatherDisplay:10.37,2013-01-30 19:14:00,
2013-01-30 13:19:00,48.6,26.5,30.03,North,8,3.5,4.0,42,0.00,BKN,,0.00,WeatherDisplay:10.37,2013-01-30 19:19:00,
2013-01-30 13:24:00,48.2,26.2,30.03,NNE,12,3.5,0.0,42,0.00,BKN,,0.00,WeatherDisplay:10.37,2013-01-30 19:24:00,
2013-01-30 13:29:00,49.1,27.5,30.03,East,86,4.6,4.6,43,0.00,BKN,,0.00,WeatherDisplay:10.37,2013-01-30 19:29:00,
2013-01-30 13:34:00,50.0,26.0,30.03,SSW,206,8.1,8.1,39,0.00,BKN,,0.00,WeatherDisplay:10.37,2013-01-30 19:34:00,
2013-01-30 13:39:00,50.4,26.3,30.03,South,178,5.8,5.8,39,0.00,BKN,,0.00,WeatherDisplay:10.37,2013-01-30 19:39:00,
2013-01-30 13:44:00,50.7,26.6,30.03,SW,225,5.8,5.8,39,0.00,BKN,,0.00,WeatherDisplay:10.37,2013-01-30 19:44:00,
2013-01-30 13:49:00,51.1,26.3,30.03,South,169,8.7,8.7,38,0.00,BKN,,0.00,WeatherDisplay:10.37,2013-01-30 19:49:00,
2013-01-30 13:54:00,50.5,25.8,30.03,SSW,192,5.8,5.8,38,0.00,BKN,,0.00,WeatherDisplay:10.37,2013-01-30 19:54:00,
2013-01-30 13:59:00,50.7,25.4,30.03,South,186,5.8,5.8,37,0.00,BKN,,0.00,WeatherDisplay:10.37,2013-01-30 19:59:00,
2013-01-30 14:04:00,50.5,25.2,30.03,South,190,8.1,8.1,37,0.00,BKN,,0.00,WeatherDisplay:10.37,2013-01-30 20:04:00,
2013-01-30 14:09:00,50.7,25.4,30.03,WSW,243,5.8,5.8,37,0.00,BKN,,0.00,WeatherDisplay:10.37,2013-01-30 20:09:00,
2013-01-30 14:14:00,50.5,25.2,30.03,SW,229,10.4,10.4,37,0.00,BKN,,0.00,WeatherDisplay:10.37,2013-01-30 20:14:00,
2013-01-30 14:19:00,50.2,24.9,30.03,SW,217,5.8,5.8,37,0.00,SCT,,0.00,WeatherDisplay:10.37,2013-01-30 20:19:00,
2013-01-30 14:24:00,50.4,25.0,30.03,SE,134,5.8,5.8,37,0.00,SCT,,0.00,WeatherDisplay:10.37,2013-01-30 20:24:00,
2013-01-30 14:29:00,50.5,25.8,30.03,North,6,3.5,3.5,38,0.00,SCT,,0.00,WeatherDisplay:10.37,2013-01-30 20:29:00,
2013-01-30 14:34:00,50.4,25.0,30.03,SSW,198,6.3,6.3,37,0.00,SCT,,0.00,WeatherDisplay:10.37,2013-01-30 20:34:00,
2013-01-30 14:39:00,50.7,25.4,30.03,SSW,196,5.8,5.8,37,0.00,SCT,,0.00,WeatherDisplay:10.37,2013-01-30 20:39:00,
2013-01-30 14:44:00,50.5,25.2,30.03,SW,224,5.8,0.0,37,0.00,SCT,,0.00,WeatherDisplay:10.37,2013-01-30 20:44:00,
2013-01-30 14:49:00,50.5,24.5,30.03,NNE,26,8.1,8.1,36,0.00,SCT,,0.00,WeatherDisplay:10.37,2013-01-30 20:49:00,
2013-01-30 14:54:00,50.5,23.9,30.03,ENE,77,5.8,5.8,35,0.00,SCT,,0.00,WeatherDisplay:10.37,2013-01-30 20:54:00,
2013-01-30 14:59:00,50.9,23.5,30.03,NNE,15,5.8,5.8,34,0.00,SCT,,0.00,WeatherDisplay:10.37,2013-01-30 20:59:00,
2013-01-30 15:04:00,50.4,24.4,30.03,ESE,118,4.9,4.9,36,0.00,SCT,,0.00,WeatherDisplay:10.37,2013-01-30 21:04:00,
2013-01-30 15:09:00,50.2,24.2,30.03,SSW,206,6.9,6.9,36,0.00,SCT,,0.00,WeatherDisplay:10.37,2013-01-30 21:09:00,
2013-01-30 15:14:00,49.8,22.5,30.03,South,176,5.8,5.8,34,0.00,SCT,,0.00,WeatherDisplay:10.37,2013-01-30 21:14:00,
2013-01-30 15:19:00,50.2,22.9,30.03,NNE,21,5.8,5.8,34,0.00,SCT,,0.00,WeatherDisplay:10.37,2013-01-30 21:19:00,
2013-01-30 15:24:00,50.2,24.2,30.03,SSW,202,8.1,8.1,36,0.00,SCT,,0.00,WeatherDisplay:10.37,2013-01-30 21:24:00,
2013-01-30 15:29:00,50.2,24.2,30.03,North,6,4.6,4.6,36,0.00,SCT,,0.00,WeatherDisplay:10.37,2013-01-30 21:29:00,
2013-01-30 15:34:00,50.2,24.2,30.03,South,181,5.8,5.8,36,0.00,SCT,,0.00,WeatherDisplay:10.37,2013-01-30 21:34:00,
2013-01-30 15:39:00,50.2,24.9,30.06,SE,138,4.6,4.6,37,0.00,SCT,,0.00,WeatherDisplay:10.37,2013-01-30 21:39:00,
2013-01-30 15:44:00,50.4,24.4,30.06,SSW,194,5.8,5.8,36,0.00,SCT,,0.00,WeatherDisplay:10.37,2013-01-30 21:44:00,
2013-01-30 15:49:00,50.2,23.5,30.06,South,173,5.8,5.8,35,0.00,SCT,,0.00,WeatherDisplay:10.37,2013-01-30 21:49:00,
2013-01-30 15:54:00,50.0,23.4,30.06,SSE,162,4.6,4.6,35,0.00,SCT,,0.00,WeatherDisplay:10.37,2013-01-30 21:54:00,
2013-01-30 15:59:00,50.2,22.1,30.06,North,10,5.8,5.8,33,0.00,SCT,,0.00,WeatherDisplay:10.37,2013-01-30 21:59:00,
2013-01-30 16:04:00,50.2,24.2,30.06,SE,141,5.8,5.8,36,0.00,SCT,,0.00,WeatherDisplay:10.37,2013-01-30 22:04:00,
2013-01-30 16:09:00,50.2,24.2,30.06,NNE,21,4.6,4.6,36,0.00,SCT,,0.00,WeatherDisplay:10.37,2013-01-30 22:09:00,
2013-01-30 16:14:00,50.2,23.5,30.06,South,181,8.1,8.1,35,0.00,SCT,,0.00,WeatherDisplay:10.37,2013-01-30 22:14:00,
2013-01-30 16:19:00,50.0,20.5,30.06,SSW,205,6.9,6.9,31,0.00,SCT,,0.00,WeatherDisplay:10.37,2013-01-30 22:19:00,
2013-01-30 16:24:00,49.8,22.5,30.06,North,357,5.8,5.8,34,0.00,SCT,,0.00,WeatherDisplay:10.37,2013-01-30 22:24:00,
2013-01-30 16:29:00,49.8,23.2,30.06,SSW,194,8.1,8.1,35,0.00,SCT,,0.00,WeatherDisplay:10.37,2013-01-30 22:29:00,
2013-01-30 16:34:00,49.6,21.7,30.06,ESE,123,4.6,4.6,33,0.00,SCT,,0.00,WeatherDisplay:10.37,2013-01-30 22:34:00,
2013-01-30 16:39:00,49.6,21.7,30.06,SSW,194,6.9,6.9,33,0.00,SCT,,0.00,WeatherDisplay:10.37,2013-01-30 22:39:00,
2013-01-30 16:44:00,49.5,22.9,30.06,ESE,109,3.5,3.5,35,0.00,SCT,,0.00,WeatherDisplay:10.37,2013-01-30 22:44:00,
2013-01-30 16:49:00,49.3,20.6,30.09,South,186,5.8,5.8,32,0.00,SCT,,0.00,WeatherDisplay:10.37,2013-01-30 22:49:00,
2013-01-30 16:54:00,49.1,19.0,30.09,SW,215,5.8,5.8,30,0.00,SCT,,0.00,WeatherDisplay:10.37,2013-01-30 22:54:00,
2013-01-30 16:59:00,48.9,20.3,30.09,SW,216,3.5,3.5,32,0.00,SCT,,0.00,WeatherDisplay:10.37,2013-01-30 22:59:00,
2013-01-30 17:04:00,48.7,18.6,30.09,WNW,288,5.8,5.8,30,0.00,SCT,,0.00,WeatherDisplay:10.37,2013-01-30 23:04:00,
2013-01-30 17:09:00,48.7,18.6,30.09,SSE,149,3.5,4.5,30,0.00,SCT,,0.00,WeatherDisplay:10.37,2013-01-30 23:09:00,
2013-01-30 17:15:00,48.6,18.5,30.09,SE,128,3.5,4.0,30,0.00,SCT,,0.00,WeatherDisplay:10.37,2013-01-30 23:15:00,
2013-01-30 17:20:00,48.6,19.3,30.09,SSW,193,8.1,8.1,31,0.00,SCT,,0.00,WeatherDisplay:10.37,2013-01-30 23:20:00,
2013-01-30 17:25:00,48.4,17.5,30.09,SSW,196,5.8,5.8,29,0.00,SCT,,0.00,WeatherDisplay:10.37,2013-01-30 23:25:00,
2013-01-30 17:30:00,48.2,19.7,30.09,SSW,196,5.8,5.8,32,0.00,SCT,,0.00,WeatherDisplay:10.37,2013-01-30 23:30:00,
2013-01-30 17:34:00,47.8,20.1,30.09,South,175,3.5,0.0,33,0.00,SCT,,0.00,WeatherDisplay:10.37,2013-01-30 23:34:00,
2013-01-30 17:40:00,47.5,21.2,30.09,SSW,198,2.3,0.0,35,0.00,SCT,,0.00,WeatherDisplay:10.37,2013-01-30 23:40:00,
2013-01-30 17:45:00,47.1,22.1,30.09,SSE,147,3.5,3.5,37,0.00,SCT,,0.00,WeatherDisplay:10.37,2013-01-30 23:45:00,
2013-01-30 17:50:00,47.1,21.5,30.09,South,170,3.5,0.0,36,0.00,SCT,,0.00,WeatherDisplay:10.37,2013-01-30 23:50:00,
2013-01-30 17:55:00,46.8,21.8,30.09,South,174,3.5,0.0,37,0.00,SCT,,0.00,WeatherDisplay:10.37,2013-01-30 23:55:00,
2013-01-30 18:00:00,46.4,21.5,30.09,South,174,0.0,4.0,37,0.00,SCT,,0.00,WeatherDisplay:10.37,2013-01-31 00:00:00,
2013-01-30 18:05:00,46.0,21.8,30.09,South,170,2.3,0.0,38,0.00,CLR,,0.00,WeatherDisplay:10.37,2013-01-31 00:05:00,
2013-01-30 18:10:00,45.9,21.7,30.09,South,170,1.0,4.0,38,0.00,CLR,,0.00,WeatherDisplay:10.37,2013-01-31 00:10:00,
2013-01-30 18:15:00,45.5,21.3,30.09,South,170,0.0,4.0,38,0.00,CLR,,0.00,WeatherDisplay:10.37,2013-01-31 00:15:00,
2013-01-30 18:20:00,45.1,21.0,30.11,South,170,2.3,0.0,38,0.00,CLR,,0.00,WeatherDisplay:10.37,2013-01-31 00:20:00,
2013-01-30 18:25:00,44.8,20.7,30.11,South,170,0.0,3.0,38,0.00,CLR,,0.00,WeatherDisplay:10.37,2013-01-31 00:25:00,
2013-01-30 18:30:00,44.6,21.1,30.11,South,170,0.0,0.0,39,0.00,CLR,,0.00,WeatherDisplay:10.37,2013-01-31 00:30:00,
2013-01-30 18:35:00,44.4,21.0,30.11,South,170,0.0,0.0,39,0.00,CLR,,0.00,WeatherDisplay:10.37,2013-01-31 00:35:00,
2013-01-30 18:40:00,44.6,21.1,30.11,South,171,3.5,0.0,39,0.00,CLR,,0.00,WeatherDisplay:10.37,2013-01-31 00:40:00,
2013-01-30 18:45:00,44.4,21.0,30.11,South,171,2.3,0.0,39,0.00,CLR,,0.00,WeatherDisplay:10.37,2013-01-31 00:45:00,
2013-01-30 18:50:00,43.9,20.5,30.11,South,171,0.0,0.0,39,0.00,CLR,,0.00,WeatherDisplay:10.37,2013-01-31 00:50:00,
2013-01-30 18:55:00,43.4,20.7,30.11,South,171,0.0,0.0,40,0.00,CLR,,0.00,WeatherDisplay:10.37,2013-01-31 00:55:00,
2013-01-30 19:00:00,43.3,20.6,30.11,South,171,0.0,0.0,40,0.00,CLR,,0.00,WeatherDisplay:10.37,2013-01-31 01:00:00,
2013-01-30 19:05:00,43.0,20.3,30.11,South,171,2.3,0.0,40,0.00,CLR,,0.00,WeatherDisplay:10.37,2013-01-31 01:05:00,
2013-01-30 19:10:00,42.8,20.7,30.11,South,171,0.0,3.0,41,0.00,CLR,,0.00,WeatherDisplay:10.37,2013-01-31 01:10:00,
2013-01-30 19:15:00,42.1,20.0,30.11,South,171,0.0,0.0,41,0.00,CLR,,0.00,WeatherDisplay:10.37,2013-01-31 01:15:00,
2013-01-30 19:20:00,41.7,20.3,30.15,South,171,0.0,0.0,42,0.00,CLR,,0.00,WeatherDisplay:10.37,2013-01-31 01:20:00,
2013-01-30 19:25:00,41.5,20.1,30.15,South,171,0.0,0.0,42,0.00,CLR,,0.00,WeatherDisplay:10.37,2013-01-31 01:25:00,
2013-01-30 19:30:00,41.5,20.1,30.15,South,171,0.0,0.0,42,0.00,CLR,,0.00,WeatherDisplay:10.37,2013-01-31 01:30:00,
2013-01-30 19:35:00,41.0,19.6,30.15,South,171,0.0,0.0,42,0.00,CLR,,0.00,WeatherDisplay:10.37,2013-01-31 01:35:00,
2013-01-30 19:40:00,40.8,20.0,30.15,South,171,0.0,0.0,43,0.00,CLR,,0.00,WeatherDisplay:10.37,2013-01-31 01:40:00,
2013-01-30 19:45:00,40.8,20.0,30.15,South,171,0.0,0.0,43,0.00,CLR,,0.00,WeatherDisplay:10.37,2013-01-31 01:45:00,
2013-01-30 19:50:00,40.5,20.2,30.15,South,171,0.0,0.0,44,0.00,CLR,,0.00,WeatherDisplay:10.37,2013-01-31 01:50:00,
2013-01-30 19:55:00,39.7,20.1,30.15,South,171,0.0,0.0,45,0.00,CLR,,0.00,WeatherDisplay:10.37,2013-01-31 01:55:00,
2013-01-30 20:00:00,39.2,20.1,30.15,South,171,0.0,0.0,46,0.00,CLR,,0.00,WeatherDisplay:10.37,2013-01-31 02:00:00,
2013-01-30 20:05:00,38.8,20.8,30.15,South,171,0.0,0.0,48,0.00,CLR,,0.00,WeatherDisplay:10.37,2013-01-31 02:05:00,
2013-01-30 20:10:00,38.7,21.1,30.15,South,171,0.0,0.0,49,0.00,CLR,,0.00,WeatherDisplay:10.37,2013-01-31 02:10:00,
2013-01-30 20:15:00,38.5,21.0,30.15,South,171,0.0,0.0,49,0.00,CLR,,0.00,WeatherDisplay:10.37,2013-01-31 02:15:00,
2013-01-30 20:20:00,38.5,21.0,30.15,South,171,0.0,0.0,49,0.00,CLR,,0.00,WeatherDisplay:10.37,2013-01-31 02:20:00,
2013-01-30 20:25:00,38.5,21.0,30.15,South,171,0.0,0.0,49,0.00,CLR,,0.00,WeatherDisplay:10.37,2013-01-31 02:25:00,
2013-01-30 20:30:00,38.1,21.1,30.15,South,171,0.0,0.0,50,0.00,CLR,,0.00,WeatherDisplay:10.37,2013-01-31 02:30:00,
2013-01-30 20:35:00,37.9,20.9,30.15,South,171,0.0,0.0,50,0.00,CLR,,0.00,WeatherDisplay:10.37,2013-01-31 02:35:00,
2013-01-30 20:40:00,37.9,21.4,30.15,South,171,0.0,0.0,51,0.00,CLR,,0.00,WeatherDisplay:10.37,2013-01-31 02:40:00,
2013-01-30 20:45:00,37.4,20.9,30.15,South,171,0.0,0.0,51,0.00,CLR,,0.00,WeatherDisplay:10.37,2013-01-31 02:45:00,
2013-01-30 20:50:00,37.2,21.2,30.15,South,171,0.0,0.0,52,0.00,CLR,,0.00,WeatherDisplay:10.37,2013-01-31 02:50:00,
2013-01-30 20:55:00,37.2,21.2,30.15,South,171,0.0,0.0,52,0.00,CLR,,0.00,WeatherDisplay:10.37,2013-01-31 02:55:00,
2013-01-30 21:00:00,37.2,21.6,30.15,South,171,0.0,0.0,53,0.00,CLR,,0.00,WeatherDisplay:10.37,2013-01-31 03:00:00,
2013-01-30 21:05:00,37.0,21.5,30.15,South,171,0.0,0.0,53,0.00,CLR,,0.00,WeatherDisplay:10.37,2013-01-31 03:05:00,
2013-01-30 21:10:00,37.0,21.4,30.15,South,171,0.0,0.0,53,0.00,CLR,,0.00,WeatherDisplay:10.37,2013-01-31 03:10:00,
2013-01-30 21:15:00,37.0,21.9,30.15,South,171,0.0,0.0,54,0.00,CLR,,0.00,WeatherDisplay:10.37,2013-01-31 03:15:00,
2013-01-30 21:20:00,36.9,21.7,30.15,South,171,0.0,0.0,54,0.00,CLR,,0.00,WeatherDisplay:10.37,2013-01-31 03:20:00,
2013-01-30 21:25:00,36.9,21.7,30.15,South,171,0.0,0.0,54,0.00,CLR,,0.00,WeatherDisplay:10.37,2013-01-31 03:25:00,
2013-01-30 21:30:00,37.4,22.2,30.15,South,171,0.0,0.0,54,0.00,CLR,,0.00,WeatherDisplay:10.37,2013-01-31 03:30:00,
2013-01-30 21:35:00,37.9,22.8,30.15,South,171,2.2,0.0,54,0.00,CLR,,0.00,WeatherDisplay:10.37,2013-01-31 03:35:00,
2013-01-30 21:40:00,38.1,22.5,30.15,South,171,0.0,0.0,53,0.00,CLR,,0.00,WeatherDisplay:10.37,2013-01-31 03:40:00,
2013-01-30 21:45:00,38.1,22.5,30.15,South,171,0.0,0.0,53,0.00,CLR,,0.00,WeatherDisplay:10.37,2013-01-31 03:45:00,
2013-01-30 21:50:00,37.9,22.3,30.15,South,171,0.0,0.0,53,0.00,CLR,,0.00,WeatherDisplay:10.37,2013-01-31 03:50:00,
2013-01-30 21:55:00,37.4,22.3,30.15,South,171,0.0,0.0,54,0.00,CLR,,0.00,WeatherDisplay:10.37,2013-01-31 03:55:00,
2013-01-30 22:00:00,37.0,21.9,30.15,South,171,0.0,0.0,54,0.00,CLR,,0.00,WeatherDisplay:10.37,2013-01-31 04:00:00,
2013-01-30 22:05:00,36.9,22.2,30.15,South,171,0.0,0.0,55,0.00,CLR,,0.00,WeatherDisplay:10.37,2013-01-31 04:05:00,
2013-01-30 22:10:00,36.5,21.8,30.15,South,171,0.0,0.0,55,0.00,CLR,,0.00,WeatherDisplay:10.37,2013-01-31 04:10:00,
2013-01-30 22:15:00,36.3,22.1,30.15,South,171,0.0,0.0,56,0.00,CLR,,0.00,WeatherDisplay:10.37,2013-01-31 04:15:00,
2013-01-30 22:20:00,36.7,22.4,30.15,South,171,0.0,0.0,56,0.00,CLR,,0.00,WeatherDisplay:10.37,2013-01-31 04:20:00,
2013-01-30 22:25:00,36.9,22.6,30.15,South,171,0.0,0.0,56,0.00,CLR,,0.00,WeatherDisplay:10.37,2013-01-31 04:25:00,
2013-01-30 22:30:00,36.8,22.6,30.15,South,171,0.0,0.0,56,0.00,CLR,,0.00,WeatherDisplay:10.37,2013-01-31 04:30:00,
2013-01-30 22:35:00,36.7,22.0,30.15,South,171,0.0,0.0,55,0.00,CLR,,0.00,WeatherDisplay:10.37,2013-01-31 04:35:00,
2013-01-30 22:40:00,36.3,21.7,30.15,South,171,0.0,0.0,55,0.00,CLR,,0.00,WeatherDisplay:10.37,2013-01-31 04:40:00,
2013-01-30 22:45:00,36.1,21.5,30.15,South,171,0.0,0.0,55,0.00,CLR,,0.00,WeatherDisplay:10.37,2013-01-31 04:45:00,
2013-01-30 22:50:00,35.8,21.6,30.15,South,171,2.3,0.0,56,0.00,CLR,,0.00,WeatherDisplay:10.37,2013-01-31 04:50:00,
2013-01-30 22:55:00,36.5,22.7,30.15,South,173,1.0,4.0,57,0.00,CLR,,0.00,WeatherDisplay:10.37,2013-01-31 04:55:00,
2013-01-30 23:00:00,36.9,22.6,30.15,SW,220,3.5,3.5,56,0.00,CLR,,0.00,WeatherDisplay:10.37,2013-01-31 05:00:00,
2013-01-30 23:03:00,36.7,22.4,30.15,SW,222,2.3,0.0,56,0.00,CLR,,0.00,WeatherDisplay:10.37,2013-01-31 05:03:00,
2013-01-30 23:08:00,36.9,22.6,30.15,SW,230,2.3,0.0,56,0.00,CLR,,0.00,WeatherDisplay:10.37,2013-01-31 05:08:00,
2013-01-30 23:13:00,36.9,22.2,30.15,SW,230,2.3,0.0,55,0.00,CLR,,0.00,WeatherDisplay:10.37,2013-01-31 05:13:00,
2013-01-30 23:18:00,36.7,22.0,30.15,SW,230,0.0,0.0,55,0.00,CLR,,0.00,WeatherDisplay:10.37,2013-01-31 05:18:00,
2013-01-30 23:23:00,36.7,22.0,30.15,SW,230,0.0,0.0,55,0.00,CLR,,0.00,WeatherDisplay:10.37,2013-01-31 05:23:00,
2013-01-30 23:28:00,36.5,21.8,30.15,SW,231,0.0,0.0,55,0.00,CLR,,0.00,WeatherDisplay:10.37,2013-01-31 05:28:00,
2013-01-30 23:33:00,36.5,21.8,30.15,SW,231,0.0,0.0,55,0.00,CLR,,0.00,WeatherDisplay:10.37,2013-01-31 05:33:00,
2013-01-30 23:38:00,36.5,21.8,30.15,SW,231,0.0,0.0,55,0.00,CLR,,0.00,WeatherDisplay:10.37,2013-01-31 05:38:00,
2013-01-30 23:43:00,36.5,21.4,30.15,SW,231,2.3,0.0,54,0.00,CLR,,0.00,WeatherDisplay:10.37,2013-01-31 05:43:00,
2013-01-30 23:48:00,36.5,21.4,30.15,SW,233,2.3,0.0,54,0.00,CLR,,0.00,WeatherDisplay:10.37,2013-01-31 05:48:00,
2013-01-30 23:53:00,36.5,21.4,30.15,SW,233,0.0,0.0,54,0.00,CLR,,0.00,WeatherDisplay:10.37,2013-01-31 05:53:00,
2013-01-30 23:58:00,36.5,21.4,30.15,SW,233,0.0,0.0,54,0.00,CLR,,0.00,WeatherDisplay:10.37,2013-01-31 05:58:00,